Time;durP1;ratioP1;P1;durP2;ratioP2;P2;SDS_P1;SDS_P2;PMS_P1;PMS_P2;Temp;Humidity;BMP_temperature;BMP_pressure;BME280_temperature;BME280_humidity;BME280_pressure;Samples;Min_cycle;Max_cycle;Signal;HPM_P1;HPM_P2
2023/02/20 00:00:27;;;;;;;6.80;2.73;;;;;;;1.42;100.00;101082.06;5176179;56;1136712;-69
2023/02/20 00:05:34;;;;;;;21.43;3.07;;;;;;;1.45;100.00;101085.03;5156658;56;1136625;-71
2023/02/20 00:10:40;;;;;;;11.87;3.33;;;;;;;1.44;100.00;101080.72;5157073;55;1138881;-71
2023/02/20 00:15:46;;;;;;;5.07;1.97;;;;;;;1.44;100.00;101085.48;5177755;56;1138865;-70
2023/02/20 00:20:52;;;;;;;4.87;2.57;;;;;;;1.45;100.00;101081.98;5157534;56;1136963;-69
2023/02/20 00:25:57;;;;;;;11.97;2.43;;;;;;;1.47;100.00;101074.97;5157658;56;1136751;-67
2023/02/20 00:31:05;;;;;;;64.23;17.90;;;;;;;1.51;100.00;101073.12;5177822;55;1138954;-75
2023/02/20 00:36:17;;;;;;;16.77;5.05;;;;;;;1.52;100.00;101074.84;5121217;55;1140840;-74
2023/02/20 00:41:23;;;;;;;18.02;3.15;;;;;;;1.51;100.00;101060.95;4902450;58;1139083;-71
2023/02/20 00:46:29;;;;;;;7.33;1.97;;;;;;;1.49;100.00;101051.02;4921452;58;1138757;-69
2023/02/20 00:51:35;;;;;;;8.00;2.00;;;;;;;1.44;100.00;101049.00;4902191;58;1136767;-73
2023/02/20 00:56:41;;;;;;;3.83;1.45;;;;;;;1.40;100.00;101029.14;4908148;58;1136957;-72
2023/02/20 01:01:48;;;;;;;4.90;1.72;;;;;;;1.36;100.00;101021.04;4998945;57;1136881;-70
2023/02/20 01:06:55;;;;;;;10.00;3.07;;;;;;;1.34;100.00;101013.72;4985350;57;1136847;-71
2023/02/20 01:12:00;;;;;;;8.95;2.12;;;;;;;1.32;100.00;101025.48;4978875;57;1138920;-66
2023/02/20 01:17:06;;;;;;;7.72;2.60;;;;;;;1.28;100.00;101030.83;4998695;57;1136803;-69
2023/02/20 01:22:13;;;;;;;8.40;2.13;;;;;;;1.27;100.00;101031.73;4979304;57;1136807;-72
2023/02/20 01:27:20;;;;;;;5.17;1.55;;;;;;;1.25;100.00;101015.29;4982506;58;1136879;-75
2023/02/20 01:32:26;;;;;;;7.53;1.60;;;;;;;1.25;100.00;101010.08;5002308;58;1136658;-67
2023/02/20 01:37:31;;;;;;;7.67;2.47;;;;;;;1.23;100.00;101007.52;4981099;57;1137108;-68
2023/02/20 01:42:37;;;;;;;11.14;2.52;;;;;;;1.23;100.00;101007.52;4979575;57;1136820;-71
2023/02/20 01:47:43;;;;;;;7.17;1.97;;;;;;;1.25;100.00;100991.39;4998444;57;1138821;-69
2023/02/20 01:52:52;;;;;;;9.70;3.00;;;;;;;1.24;100.00;100987.53;4979244;57;1136702;-73
2023/02/20 01:58:12;;;;;;;7.93;2.20;;;;;;;1.23;100.00;100987.98;4942877;57;1136975;-72
2023/02/20 02:03:28;;;;;;;6.80;3.93;;;;;;;1.22;100.00;100979.75;4960818;56;1136942;-69
2023/02/20 02:08:36;;;;;;;5.23;1.60;;;;;;;1.29;100.00;100989.55;4941642;57;1136775;-69
2023/02/20 02:13:44;;;;;;;2.75;1.42;;;;;;;1.33;100.00;100975.53;4941549;57;1136934;-70
2023/02/20 02:19:04;;;;;;;10.93;2.00;;;;;;;1.35;100.00;100938.55;4960226;57;1136809;-72
2023/02/20 02:24:38;;;;;;;5.10;2.63;;;;;;;1.40;100.00;100916.62;4940360;57;1139045;-70
2023/02/20 02:30:27;;;;;;;4.65;1.80;;;;;;;1.45;100.00;100918.23;4935308;57;1136890;-73
2023/02/20 02:35:53;;;;;;;8.65;2.50;;;;;;;1.46;100.00;100899.94;4939929;57;1136651;-69
2023/02/20 02:41:12;;;;;;;10.07;3.27;;;;;;;1.49;100.00;100911.58;4936798;58;1136737;-69
2023/02/20 02:46:31;;;;;;;8.50;1.83;;;;;;;1.51;100.00;100924.55;4955669;58;1138774;-67
2023/02/20 02:51:44;;;;;;;6.77;1.47;;;;;;;1.54;100.00;100921.82;4936630;58;1136702;-75
2023/02/20 02:56:49;;;;;;;5.87;1.77;;;;;;;1.55;100.00;100903.52;4937326;57;1136710;-69
2023/02/20 03:02:02;;;;;;;2.65;1.55;;;;;;;1.60;100.00;100907.28;4960264;57;1136946;-69
2023/02/20 03:07:11;;;;;;;5.75;2.08;;;;;;;1.63;100.00;100901.97;4986436;56;1136906;-66
2023/02/20 03:12:19;;;;;;;5.10;2.07;;;;;;;1.67;100.00;100888.79;4992624;57;1136929;-68
2023/02/20 03:17:44;;;;;;;8.70;3.10;;;;;;;1.70;100.00;100896.48;4927512;58;1136716;-68
2023/02/20 03:23:02;;;;;;;2.53;1.80;;;;;;;1.74;100.00;100878.98;4907384;58;1136986;-67
2023/02/20 03:28:15;;;;;;;3.70;1.60;;;;;;;1.75;100.00;100864.58;4982542;58;1137026;-70
2023/02/20 03:44:32;;;;;;;5.00;2.27;;;;;;;1.81;100.00;100872.65;4978863;57;1136809;-68
2023/02/20 03:49:42;;;;;;;8.43;1.60;;;;;;;1.84;100.00;100870.36;4978936;57;1136765;-72
2023/02/20 03:54:50;;;;;;;5.50;1.85;;;;;;;1.85;100.00;100854.66;4997919;57;1136708;-69
2023/02/20 04:00:08;;;;;;;7.55;2.17;;;;;;;1.84;100.00;100840.37;4963569;56;1136768;-69
2023/02/20 04:05:20;;;;;;;8.28;1.98;;;;;;;1.82;100.00;100843.06;4983327;57;1136897;-72
2023/02/20 04:10:30;;;;;;;8.77;2.03;;;;;;;1.84;100.00;100850.80;4995722;56;1136726;-68
2023/02/20 04:15:38;;;;;;;5.33;2.13;;;;;;;1.84;100.00;100844.28;4915797;56;1136777;-72
2023/02/20 04:20:45;;;;;;;5.23;1.70;;;;;;;1.84;100.00;100833.84;4984500;57;1136715;-67
2023/02/20 04:26:10;;;;;;;4.58;2.15;;;;;;;1.85;100.00;100821.20;5003896;57;1136645;-71
2023/02/20 04:31:21;;;;;;;8.63;2.80;;;;;;;1.85;100.00;100832.49;4984032;57;1136771;-71
2023/02/20 04:36:28;;;;;;;3.93;1.30;;;;;;;1.85;100.00;100820.76;4982930;57;1137314;-67
2023/02/20 04:41:35;;;;;;;6.57;1.87;;;;;;;1.86;100.00;100812.48;4928372;58;1136791;-71
2023/02/20 04:46:42;;;;;;;7.90;2.17;;;;;;;1.89;100.00;100809.31;4969074;57;1136778;-70
2023/02/20 04:51:48;;;;;;;7.63;2.63;;;;;;;1.92;100.00;100802.69;5101425;55;1136806;-69
2023/02/20 04:56:54;;;;;;;10.67;2.83;;;;;;;1.93;100.00;100787.89;5067968;55;1137030;-70
2023/02/20 05:02:01;;;;;;;7.40;1.87;;;;;;;1.88;100.00;100777.62;5130008;55;1138840;-66
2023/02/20 05:07:06;;;;;;;6.42;2.62;;;;;;;1.82;100.00;100754.85;5176276;55;1136731;-66
2023/02/20 05:12:12;;;;;;;6.90;2.17;;;;;;;1.78;100.00;100744.98;5170790;55;1136668;-69
2023/02/20 05:17:19;;;;;;;4.20;2.10;;;;;;;1.76;100.00;100752.02;5181252;55;1136765;-69
2023/02/20 05:22:24;;;;;;;5.90;1.97;;;;;;;1.76;100.00;100746.34;5138757;55;1136786;-67
2023/02/20 05:27:31;;;;;;;7.00;2.80;;;;;;;1.75;100.00;100732.91;5009904;56;1136830;-71
2023/02/20 05:32:37;;;;;;;5.73;2.73;;;;;;;1.75;100.00;100729.45;5067147;57;1136839;-68
2023/02/20 05:37:42;;;;;;;6.15;2.17;;;;;;;1.74;100.00;100705.58;5062926;56;1137067;-72
2023/02/20 05:42:48;;;;;;;8.70;2.70;;;;;;;1.72;100.00;100692.61;5031829;57;1136770;-72
2023/02/20 05:47:54;;;;;;;7.75;3.40;;;;;;;1.74;100.00;100679.52;5024434;57;1136766;-68
2023/02/20 05:53:00;;;;;;;12.98;3.10;;;;;;;1.75;100.00;100688.58;5055823;57;1136858;-71
2023/02/20 05:58:06;;;;;;;3.67;2.57;;;;;;;1.76;100.00;100683.77;5033040;57;1139177;-70
2023/02/20 06:03:15;;;;;;;8.78;3.12;;;;;;;1.78;100.00;100691.98;5007691;56;1136906;-72
2023/02/20 06:08:21;;;;;;;9.88;3.17;;;;;;;1.78;100.00;100674.58;4930485;57;1136840;-72
2023/02/20 06:13:27;;;;;;;7.87;3.20;;;;;;;1.79;100.00;100671.06;4900119;58;1136874;-70
2023/02/20 06:18:32;;;;;;;8.87;4.37;;;;;;;1.81;100.00;100680.98;4975298;57;1136911;-69
2023/02/20 06:23:39;;;;;;;9.13;3.67;;;;;;;1.83;100.00;100658.77;4900907;58;1136867;-72
2023/02/20 06:28:48;;;;;;;14.47;3.70;;;;;;;1.84;100.00;100647.39;5082343;56;1137171;-68
2023/02/20 06:33:53;;;;;;;8.07;4.20;;;;;;;1.87;100.00;100637.70;5115325;56;1139006;-72
2023/02/20 06:38:59;;;;;;;9.17;4.50;;;;;;;1.90;100.00;100626.30;5050048;56;1136807;-73
2023/02/20 06:44:05;;;;;;;9.38;4.20;;;;;;;1.95;100.00;100622.61;4916176;57;1136818;-71
2023/02/20 06:49:11;;;;;;;12.50;4.77;;;;;;;1.98;100.00;100615.12;4933030;57;1137002;-70
2023/02/20 06:54:20;;;;;;;11.80;5.07;;;;;;;2.00;100.00;100612.81;5058640;56;1138788;-68
2023/02/20 06:59:26;;;;;;;7.93;4.80;;;;;;;2.02;100.00;100597.95;4945355;57;1138949;-65
2023/02/20 07:04:32;;;;;;;6.30;4.07;;;;;;;2.05;100.00;100582.19;5098694;55;1136944;-73
2023/02/20 07:09:37;;;;;;;7.97;4.47;;;;;;;2.11;100.00;100545.87;5195243;54;1136898;-75
2023/02/20 07:14:44;;;;;;;9.20;4.47;;;;;;;2.17;100.00;100531.24;5187256;55;1136877;-74
2023/02/20 07:19:49;;;;;;;10.38;5.22;;;;;;;2.19;100.00;100522.90;5214462;54;1136749;-74
2023/02/20 07:24:55;;;;;;;11.37;4.57;;;;;;;2.23;100.00;100508.81;5042889;56;1138790;-68
2023/02/20 07:30:02;;;;;;;10.60;5.70;;;;;;;2.28;100.00;100512.54;5195042;54;1138952;-72
2023/02/20 07:35:08;;;;;;;8.74;4.58;;;;;;;2.31;100.00;100490.20;5062179;56;1138946;-75
2023/02/20 07:40:14;;;;;;;11.13;4.43;;;;;;;2.33;100.00;100473.56;4977230;56;1136946;-69
2023/02/20 07:45:20;;;;;;;13.40;4.78;;;;;;;2.37;100.00;100461.23;4978369;57;1139020;-69
2023/02/20 07:50:26;;;;;;;9.00;5.07;;;;;;;2.39;100.00;100471.15;5215507;54;1138909;-69
2023/02/20 07:55:31;;;;;;;10.67;6.43;;;;;;;2.43;100.00;100464.88;5187337;55;1136841;-71
2023/02/20 08:00:37;;;;;;;6.80;5.07;;;;;;;2.48;100.00;100445.92;5189011;54;1138694;-72
2023/02/20 08:05:43;;;;;;;13.30;6.07;;;;;;;2.54;100.00;100439.13;5187912;55;1136971;-72
2023/02/20 08:10:51;;;;;;;11.93;6.20;;;;;;;2.59;100.00;100425.88;5070208;56;1139016;-68
2023/02/20 08:15:57;;;;;;;11.10;5.10;;;;;;;2.65;100.00;100432.95;5019155;56;1139041;-71
2023/02/20 08:21:03;;;;;;;10.03;5.87;;;;;;;2.68;100.00;100426.74;5025021;56;1138815;-69
2023/02/20 08:26:09;;;;;;;13.53;6.57;;;;;;;2.74;100.00;100412.11;4944962;57;1138905;-68
2023/02/20 08:31:15;;;;;;;9.25;6.90;;;;;;;2.80;100.00;100410.50;4952939;57;1138761;-69
2023/02/20 08:36:21;;;;;;;13.20;6.30;;;;;;;2.88;100.00;100403.16;4932806;57;1136663;-68
2023/02/20 08:41:27;;;;;;;11.10;5.90;;;;;;;2.93;100.00;100389.86;5177439;55;1139034;-67
2023/02/20 08:46:33;;;;;;;9.20;5.57;;;;;;;2.99;100.00;100383.89;5134061;55;1139010;-67
2023/02/20 08:51:39;;;;;;;21.17;11.60;;;;;;;3.06;100.00;100373.50;5130473;55;1136704;-68
2023/02/20 08:56:45;;;;;;;13.78;7.30;;;;;;;3.10;100.00;100363.30;5000231;56;1140888;-67
2023/02/20 09:01:50;;;;;;;11.03;6.60;;;;;;;3.15;100.00;100361.77;5005061;56;1138776;-71
2023/02/20 09:06:56;;;;;;;12.67;6.97;;;;;;;3.18;100.00;100338.95;5005614;56;1138834;-68
2023/02/20 09:12:02;;;;;;;10.47;6.47;;;;;;;3.23;100.00;100324.79;4972537;56;1138867;-68
2023/02/20 09:17:08;;;;;;;9.83;5.97;;;;;;;3.28;100.00;100290.12;5088704;55;1138939;-68
2023/02/20 09:22:15;;;;;;;9.78;7.10;;;;;;;3.33;100.00;100282.91;4972691;56;1136935;-65
2023/02/20 09:27:21;;;;;;;12.95;6.65;;;;;;;3.37;100.00;100239.52;4961774;57;1136982;-70
2023/02/20 09:32:27;;;;;;;18.53;10.60;;;;;;;3.45;100.00;100226.91;4981297;57;1138957;-71
2023/02/20 09:37:32;;;;;;;14.13;9.00;;;;;;;3.53;100.00;100196.42;4989032;57;1141006;-68
2023/02/20 09:43:03;;;;;;;23.32;12.50;;;;;;;3.60;100.00;100180.80;5167132;55;1138876;-64
2023/02/20 09:48:22;;;;;;;14.20;6.92;;;;;;;3.68;100.00;100169.44;5168713;55;1140990;-67
2023/02/20 09:53:41;;;;;;;10.43;5.90;;;;;;;3.73;100.00;100185.73;5190633;55;1138830;-70
2023/02/20 09:59:18;;;;;;;10.80;6.53;;;;;;;3.83;100.00;100175.59;5169142;55;1139102;-69
2023/02/20 10:04:28;;;;;;;10.87;7.10;;;;;;;3.94;100.00;100148.86;5177482;55;1138740;-68
2023/02/20 10:09:34;;;;;;;11.07;5.83;;;;;;;4.06;100.00;100120.69;5148397;55;1139116;-70
2023/02/20 10:14:56;;;;;;;17.07;8.83;;;;;;;4.22;100.00;100095.32;5026578;56;1138793;-67
2023/02/20 10:20:08;;;;;;;39.13;14.00;;;;;;;4.35;100.00;100079.27;5037296;55;1138882;-72
2023/02/20 10:25:34;;;;;;;18.85;8.28;;;;;;;4.47;100.00;100059.36;5016198;56;1141038;-69
2023/02/20 10:31:30;;;;;;;147.62;39.15;;;;;;;4.57;100.00;100044.80;4993522;57;1138925;-72
2023/02/20 10:36:49;;;;;;;14.07;7.37;;;;;;;4.69;100.00;100023.10;5036462;55;1143024;-71
2023/02/20 10:42:05;;;;;;;78.33;23.80;;;;;;;4.86;100.00;100026.00;5081109;55;1139039;-69
2023/02/20 10:47:25;;;;;;;24.52;7.90;;;;;;;5.02;100.00;99995.75;5053655;56;1140892;-70
2023/02/20 10:52:35;;;;;;;20.70;9.03;;;;;;;5.16;100.00;99996.55;5058394;55;1136822;-71
2023/02/20 10:58:03;;;;;;;12.25;6.87;;;;;;;5.30;100.00;99985.19;5043301;55;1136873;-72
2023/02/20 11:03:13;;;;;;;15.83;6.23;;;;;;;5.45;100.00;99993.84;5019445;56;1136841;-75
2023/02/20 11:08:20;;;;;;;11.33;6.35;;;;;;;5.58;100.00;99972.42;4984109;56;1136837;-72
2023/02/20 11:13:26;;;;;;;14.00;6.47;;;;;;;5.72;100.00;99967.11;4972065;57;1137091;-71
2023/02/20 11:18:35;;;;;;;12.83;6.83;;;;;;;5.84;100.00;99953.63;5040762;56;1136894;-69
2023/02/20 11:23:45;;;;;;;14.50;6.67;;;;;;;5.95;100.00;99917.91;4998263;56;1136698;-74
2023/02/20 11:29:15;;;;;;;8.28;5.60;;;;;;;6.20;100.00;99914.42;4988131;56;1137153;-67
2023/02/20 11:34:24;;;;;;;9.25;6.62;;;;;;;6.20;100.00;99914.42;5051183;57;1134839;-68
2023/02/20 11:39:31;;;;;;;7.83;5.87;;;;;;;6.35;100.00;99909.89;5002838;57;1134699;-73
2023/02/20 11:44:37;;;;;;;12.10;5.97;;;;;;;6.44;100.00;99913.17;5010009;57;1134896;-70
2023/02/20 11:49:43;;;;;;;7.60;5.12;;;;;;;6.53;100.00;99881.49;4996766;56;1136976;-70
2023/02/20 11:55:10;;;;;;;10.43;5.87;;;;;;;6.60;100.00;99877.47;4936555;57;1134860;-69
2023/02/20 12:00:21;;;;;;;6.55;4.60;;;;;;;6.67;100.00;99869.05;4940934;57;1136861;-69
2023/02/20 12:05:45;;;;;;;6.90;4.87;;;;;;;6.79;100.00;99863.84;5147307;55;1134754;-69
2023/02/20 12:10:54;;;;;;;11.53;4.97;;;;;;;6.83;100.00;99854.33;4954647;56;1134860;-71
2023/02/20 12:16:04;;;;;;;8.17;4.37;;;;;;;6.90;100.00;99837.62;5071106;56;1136971;-73
2023/02/20 12:21:18;;;;;;;6.73;4.23;;;;;;;6.95;100.00;99849.48;5153299;55;1134667;-68
2023/02/20 12:26:43;;;;;;;7.70;4.70;;;;;;;7.00;100.00;99855.73;5147293;55;1137003;-68
2023/02/20 12:31:54;;;;;;;4.00;3.20;;;;;;;7.02;100.00;99848.09;5000458;55;1136908;-71
2023/02/20 12:37:34;;;;;;;5.72;3.75;;;;;;;7.13;100.00;99824.11;5168138;55;1134665;-72
2023/02/20 12:43:17;;;;;;;3.13;2.83;;;;;;;7.24;100.00;99821.50;5026854;56;1136963;-72
2023/02/20 12:48:43;;;;;;;3.15;2.85;;;;;;;7.37;100.00;99811.73;5146621;55;1134735;-76
2023/02/20 12:54:37;;;;;;;5.50;3.07;;;;;;;7.47;100.00;99796.11;5155878;55;1137787;-72
2023/02/20 13:00:01;;;;;;;4.27;3.03;;;;;;;7.55;100.00;99781.88;5151270;55;1136907;-72
2023/02/20 13:05:15;;;;;;;3.55;2.75;;;;;;;7.60;100.00;99762.63;5160705;55;1136656;-74
2023/02/20 13:10:25;;;;;;;3.37;3.08;;;;;;;7.66;100.00;99751.14;5147243;55;1136760;-77
2023/02/20 13:15:41;;;;;;;5.03;2.93;;;;;;;7.70;100.00;99753.06;5040338;56;1136881;-71
2023/02/20 13:20:51;;;;;;;5.53;2.80;;;;;;;7.74;100.00;99754.50;4932181;57;1136835;-71
2023/02/20 13:25:57;;;;;;;3.23;2.63;;;;;;;7.76;100.00;99761.33;5040819;56;1136912;-69
2023/02/20 13:31:23;;;;;;;5.53;2.47;;;;;;;7.75;100.00;99782.50;4994822;57;1136842;-73
2023/02/20 13:36:37;;;;;;;5.87;3.77;;;;;;;7.73;100.00;99774.72;4987809;56;1136818;-68
2023/02/20 13:41:58;;;;;;;3.17;2.80;;;;;;;7.75;100.00;99761.45;5002963;57;1136976;-73
2023/02/20 13:47:30;;;;;;;3.77;2.73;;;;;;;7.76;100.00;99782.86;5021428;57;1136767;-65
2023/02/20 13:52:45;;;;;;;7.60;3.47;;;;;;;7.78;100.00;99774.38;4903898;58;1136684;-69
2023/02/20 13:58:01;;;;;;;7.22;3.65;;;;;;;7.76;100.00;99754.75;4959977;58;1137031;-66
2023/02/20 14:03:23;;;;;;;3.73;2.90;;;;;;;7.75;100.00;99749.13;4910600;58;1136765;-68
2023/02/20 14:08:29;;;;;;;7.60;2.87;;;;;;;7.77;100.00;99758.22;4908378;57;1136844;-65
2023/02/20 14:13:36;;;;;;;10.17;2.80;;;;;;;7.76;100.00;99736.32;4907230;57;1136788;-64
2023/02/20 14:18:42;;;;;;;6.30;3.40;;;;;;;7.76;100.00;99740.75;4915393;57;1138867;-67
2023/02/20 14:23:51;;;;;;;8.97;3.33;;;;;;;7.80;100.00;99722.41;4983496;57;1136873;-68
2023/02/20 14:29:00;;;;;;;7.60;2.97;;;;;;;7.83;100.00;99710.34;4946003;57;1136747;-65
2023/02/20 14:34:15;;;;;;;4.67;2.50;;;;;;;7.84;100.00;99713.33;4963458;57;1136755;-65
2023/02/20 14:39:43;;;;;;;4.43;3.13;;;;;;;7.89;100.00;99721.70;4955792;57;1136818;-67
2023/02/20 14:44:56;;;;;;;6.97;3.10;;;;;;;7.90;100.00;99718.13;4912598;58;1137240;-66
2023/02/20 14:50:30;;;;;;;8.45;2.58;;;;;;;7.93;100.00;99724.94;4829874;58;1136895;-68
2023/02/20 14:55:36;;;;;;;4.23;2.67;;;;;;;7.94;100.00;99714.77;4879831;59;1136981;-65
2023/02/20 15:00:44;;;;;;;7.73;2.63;;;;;;;7.99;100.00;99714.74;4869579;59;1137010;-68
2023/02/20 15:05:51;;;;;;;3.20;2.33;;;;;;;8.00;100.00;99705.05;4847798;59;1136717;-68
2023/02/20 15:10:58;;;;;;;10.43;3.87;;;;;;;8.06;100.00;99677.76;4895924;58;1137054;-67
2023/02/20 15:16:11;;;;;;;4.27;2.27;;;;;;;8.11;100.00;99711.13;4910110;58;1139054;-67
2023/02/20 15:21:42;;;;;;;2.50;2.33;;;;;;;8.15;100.00;99715.67;4953768;57;1137143;-67
2023/02/20 15:26:48;;;;;;;3.80;3.20;;;;;;;8.19;100.00;99720.22;4978885;57;1137236;-68
2023/02/20 15:32:03;;;;;;;5.47;2.30;;;;;;;8.17;100.00;99711.13;4982726;57;1136803;-68
2023/02/20 15:37:27;;;;;;;4.00;3.08;;;;;;;8.18;100.00;99699.62;5024364;56;1136812;-68
2023/02/20 15:42:34;;;;;;;5.67;3.17;;;;;;;8.19;100.00;99715.79;4964249;57;1136656;-69
2023/02/20 15:47:40;;;;;;;3.33;2.40;;;;;;;8.22;100.00;99718.66;4978097;57;1136645;-70
2023/02/20 15:52:47;;;;;;;2.30;2.12;;;;;;;8.23;100.00;99713.75;4877966;58;1137452;-68
2023/02/20 15:57:56;;;;;;;3.27;2.63;;;;;;;8.23;100.00;99715.91;4906290;58;1137080;-67
2023/02/20 16:03:03;;;;;;;2.87;2.00;;;;;;;8.23;100.00;99701.90;4918286;58;1136971;-70
2023/02/20 16:08:09;;;;;;;5.37;2.97;;;;;;;8.25;100.00;99713.16;4846219;58;1137045;-70
2023/02/20 16:13:36;;;;;;;4.85;3.70;;;;;;;8.26;100.00;99709.53;4985382;56;1136788;-70
2023/02/20 16:18:41;;;;;;;6.23;3.50;;;;;;;8.28;100.00;99720.78;4995726;56;1136757;-66
2023/02/20 16:23:48;;;;;;;4.95;4.45;;;;;;;8.29;100.00;99725.09;4957930;56;1136986;-66
2023/02/20 16:29:01;;;;;;;6.80;3.17;;;;;;;8.30;100.00;99721.50;4918143;57;1136875;-69
2023/02/20 16:34:08;;;;;;;6.40;3.27;;;;;;;8.36;100.00;99721.89;4861090;58;1136957;-67
2023/02/20 16:39:14;;;;;;;4.60;2.80;;;;;;;8.37;100.00;99723.56;4926594;58;1137164;-66
2023/02/20 16:44:39;;;;;;;6.60;4.17;;;;;;;8.34;100.00;99742.25;4972058;57;1136623;-67
2023/02/20 16:49:46;;;;;;;6.10;3.10;;;;;;;8.38;100.00;99751.59;4963688;57;1136749;-66
2023/02/20 16:54:53;;;;;;;4.77;3.03;;;;;;;8.42;100.00;99737.66;4951648;57;1136938;-68
2023/02/20 17:00:01;;;;;;;3.90;2.37;;;;;;;8.46;100.00;99743.05;4959328;57;1136839;-68
2023/02/20 17:05:07;;;;;;;7.83;3.57;;;;;;;8.45;100.00;99747.48;4940963;57;1136842;-66
2023/02/20 17:10:13;;;;;;;3.73;2.60;;;;;;;8.50;100.00;99753.70;4921994;57;1136918;-70
2023/02/20 17:15:22;;;;;;;4.37;3.55;;;;;;;8.50;100.00;99754.18;4959928;58;1136747;-67
2023/02/20 17:20:29;;;;;;;4.45;2.80;;;;;;;8.53;100.00;99752.62;4940811;57;1136750;-67
2023/02/20 17:25:35;;;;;;;5.50;2.70;;;;;;;8.51;100.00;99759.81;4912107;57;1136792;-65
2023/02/20 17:30:41;;;;;;;6.90;3.07;;;;;;;8.52;100.00;99754.90;4939988;57;1136732;-67
2023/02/20 17:35:46;;;;;;;2.98;2.50;;;;;;;8.52;100.00;99758.85;4958427;57;1136728;-66
2023/02/20 17:40:52;;;;;;;6.03;3.00;;;;;;;8.50;100.00;99747.11;4936945;58;1136838;-68
2023/02/20 17:45:58;;;;;;;4.53;2.85;;;;;;;8.50;100.00;99742.32;4961979;57;1136840;-69
2023/02/20 17:51:04;;;;;;;3.67;3.30;;;;;;;8.54;100.00;99751.66;4982871;57;1136771;-69
2023/02/20 17:56:17;;;;;;;4.17;2.23;;;;;;;8.56;100.00;99737.38;4944052;57;1136744;-67
2023/02/20 18:01:26;;;;;;;7.60;3.00;;;;;;;8.56;100.00;99743.13;4862075;58;1136831;-68
2023/02/20 18:06:31;;;;;;;3.97;2.80;;;;;;;8.58;100.00;99742.52;4931672;57;1136895;-66
2023/02/20 18:11:38;;;;;;;4.70;2.97;;;;;;;8.56;100.00;99740.48;4860636;58;1137065;-69
2023/02/20 18:16:44;;;;;;;5.37;3.27;;;;;;;8.52;100.00;99739.09;4966916;57;1136823;-66
2023/02/20 18:21:51;;;;;;;5.60;3.50;;;;;;;8.44;100.00;99741.84;5012427;57;1136810;-66
2023/02/20 18:26:58;;;;;;;9.33;3.50;;;;;;;8.35;100.00;99750.52;4982262;57;1136879;-65
2023/02/20 18:32:04;;;;;;;6.07;3.47;;;;;;;8.25;100.00;99760.57;5036144;57;1136786;-65
2023/02/20 18:37:10;;;;;;;4.10;3.47;;;;;;;8.17;100.00;99765.12;5002422;57;1136959;-69
2023/02/20 18:42:16;;;;;;;3.43;3.23;;;;;;;8.09;100.00;99748.63;4968428;56;1136835;-68
2023/02/20 18:47:22;;;;;;;2.83;2.62;;;;;;;8.01;100.00;99718.09;4903015;57;1137132;-67
2023/02/20 18:52:27;;;;;;;5.03;3.25;;;;;;;7.96;100.00;99709.72;4921945;57;1136838;-66
2023/02/20 18:57:33;;;;;;;5.47;3.97;;;;;;;7.97;100.00;99718.45;4962707;57;1136968;-67
2023/02/20 19:02:39;;;;;;;4.90;2.80;;;;;;;8.01;100.00;99706.72;4946043;58;1136907;-67
2023/02/20 19:07:46;;;;;;;7.17;2.40;;;;;;;8.02;100.00;99712.34;4920336;58;1136953;-67
2023/02/20 19:12:54;;;;;;;2.60;2.40;;;;;;;8.09;100.00;99697.75;5015361;57;1136799;-66
2023/02/20 19:18:00;;;;;;;2.67;2.20;;;;;;;8.12;100.00;99710.16;4960188;57;1136802;-66
2023/02/20 19:23:06;;;;;;;2.50;1.80;;;;;;;8.17;100.00;99694.48;4966991;57;1136933;-67
2023/02/20 19:28:12;;;;;;;5.00;3.13;;;;;;;8.21;100.00;99706.45;4990387;57;1136876;-68
2023/02/20 19:33:17;;;;;;;8.28;4.22;;;;;;;8.26;100.00;99700.31;4922873;57;1138094;-67
2023/02/20 19:38:23;;;;;;;3.55;1.85;;;;;;;8.27;100.00;99704.62;4926854;57;1136844;-67
2023/02/20 19:43:29;;;;;;;2.40;2.20;;;;;;;8.32;100.00;99706.44;4959458;56;1136832;-69
2023/02/20 19:48:35;;;;;;;3.57;2.40;;;;;;;8.36;100.00;99716.62;4939573;57;1136874;-67
2023/02/20 19:53:41;;;;;;;1.73;1.63;;;;;;;8.39;100.00;99707.62;4966189;56;1136941;-67
2023/02/20 19:58:46;;;;;;;5.10;1.03;;;;;;;8.46;100.00;99689.86;4919342;57;1137048;-72
2023/02/20 20:03:52;;;;;;;1.77;1.67;;;;;;;8.54;100.00;99697.16;4926021;56;1136743;-70
2023/02/20 20:08:59;;;;;;;1.10;1.10;;;;;;;8.55;100.00;99690.92;4926564;56;1137104;-72
2023/02/20 20:14:04;;;;;;;1.00;0.90;;;;;;;8.55;100.00;99683.02;4956938;57;1136915;-71
2023/02/20 20:19:11;;;;;;;1.37;1.20;;;;;;;8.57;100.00;99687.66;4935545;58;1136879;-69
2023/02/20 20:24:17;;;;;;;0.80;0.80;;;;;;;8.59;100.00;99710.77;4935942;58;1136970;-73
2023/02/20 20:29:23;;;;;;;0.80;0.80;;;;;;;8.61;100.00;99717.23;4963668;57;1136869;-71
2023/02/20 20:34:29;;;;;;;0.93;0.93;;;;;;;8.66;100.00;99709.80;5014242;55;1136830;-73
2023/02/20 20:39:34;;;;;;;0.70;0.70;;;;;;;8.62;100.00;99708.37;4938898;57;1136975;-70
2023/02/20 20:44:40;;;;;;;2.50;0.90;;;;;;;8.59;100.00;99717.36;5001498;57;1136960;-69
2023/02/20 20:49:45;;;;;;;0.83;0.83;;;;;;;8.55;100.00;99712.01;4914221;58;1136712;-72
2023/02/20 20:54:54;;;;;;;1.30;1.20;;;;;;;8.55;100.00;99734.89;4888755;57;1136769;-68
2023/02/20 21:00:00;;;;;;;0.80;0.80;;;;;;;8.52;100.00;99735.13;5156667;55;1136841;-74
2023/02/20 21:05:06;;;;;;;0.87;0.70;;;;;;;8.44;100.00;99733.95;5178471;56;1136767;-71
2023/02/20 21:10:12;;;;;;;0.40;0.40;;;;;;;8.29;100.00;99736.95;5155921;56;1136750;-71
2023/02/20 21:15:19;;;;;;;0.63;0.63;;;;;;;8.29;100.00;99736.95;4926589;57;1138707;-71
2023/02/20 21:20:29;;;;;;;0.75;0.75;;;;;;;8.25;100.00;99722.38;5002863;57;1136718;-74
2023/02/20 21:25:35;;;;;;;0.40;0.40;;;;;;;8.23;100.00;99722.49;4983227;57;1136948;-73
2023/02/20 21:30:41;;;;;;;0.42;0.42;;;;;;;8.25;100.00;99711.84;4981783;57;1136857;-73
2023/02/20 21:35:47;;;;;;;0.80;0.80;;;;;;;8.25;100.00;99710.01;4930861;57;1136909;-71
2023/02/20 21:40:53;;;;;;;0.70;0.70;;;;;;;8.26;100.00;99727.97;4860301;58;1136820;-72
2023/02/20 21:45:59;;;;;;;1.00;1.00;;;;;;;8.26;100.00;99713.00;4937303;57;1136790;-69
2023/02/20 21:51:05;;;;;;;1.37;1.27;;;;;;;8.29;100.00;99709.29;4956009;57;1136718;-72
2023/02/20 21:56:10;;;;;;;1.40;0.93;;;;;;;8.29;100.00;99704.86;4983638;57;1136801;-70
